Larry Drummond — WDG3073 — position and weather

sailwx.info

Track history (hours):
 
Tides and Currents Weather Stations Pressure Air Temp Water Temp Dewpoint Dewpoint Depression Visibility Wind Speed Wind Dir Waves Ship Positions

Larry Drummond

Owner: INGRAM BARGE COMPANY, NASHVILLE, TN. More information available from US FCC via Universal Licensing System and Coast Guard Vessel Documentation Center.

Last reported at 2015-Jul-28 13:29 UTC. Time now 2015-Jul-31 01:05 UTC.
Position N 38°38' W 083°40'.

Length 70 m; draft 9 m.

Type: Towing. MMSI: 367522210.

Date/timePositionNaut miles runAvg speedWind from/ knotsBaromVisibWave heightAir tempDewpointWater temp
2015-Jul-28 13:29N 38°38' W 083°40'2 0.9
2015-Jul-28 11:20N 38°38' W 083°42'10 1.7
2015-Jul-28 05:33N 38°45' W 083°51'4 3.7
2015-Jul-28 04:33N 38°46' W 083°56'5 3.6
2015-Jul-28 03:08N 38°46' W 084°02'2 3.7
2015-Jul-28 02:33N 38°46' W 084°05'4 3.7
2015-Jul-28 01:33N 38°48' W 084°09'2 2.0
2015-Jul-28 00:32N 38°48' W 084°12'2 2.3
2015-Jul-27 23:33N 38°50' W 084°14'4 3.5
2015-Jul-27 22:33N 38°53' W 084°14'3 3.1
2015-Jul-27 21:33N 38°56' W 084°16'3 3.1
2015-Jul-27 20:33N 38°59' W 084°18'3 3.1
2015-Jul-27 19:33N 39°01' W 084°20'3 3.1
2015-Jul-27 18:32N 39°03' W 084°23'1 1.1
2015-Jul-27 17:33N 39°03' W 084°25'2 2.1
2015-Jul-27 16:32N 39°05' W 084°26'3 2.6
2015-Jul-27 15:33N 39°07' W 084°27'3 2.6
2015-Jul-27 14:33N 39°06' W 084°30'3 3.1
2015-Jul-27 13:32N 39°05' W 084°34'1 0.9
2015-Jul-27 12:32N 39°05' W 084°35'0 0.1
2015-Jul-27 11:32N 39°05' W 084°35'0 0.0
2015-Jul-27 10:33N 39°05' W 084°35'0 0.0
2015-Jul-27 09:32N 39°05' W 084°35'1 0.8
2015-Jul-27 08:32N 39°04' W 084°36'3 3.1
2015-Jul-27 07:34N 39°06' W 084°40'3 3.0
2015-Jul-27 06:32N 39°08' W 084°43'3 2.6
2015-Jul-27 05:32N 39°08' W 084°46'2 2.0
2015-Jul-27 04:33N 39°07' W 084°48'0 0.0
2015-Jul-27 03:33N 39°07' W 084°48'5 2.5
2015-Jul-27 01:26N 39°04' W 084°53'7 2.6
2015-Jul-26 22:32N 38°57' W 084°51'13 1.4
2015-Jul-26 13:32N 38°46' W 085°00'  
Track history (hours):
 
Tides and Currents Weather Stations Pressure Air Temp Water Temp Dewpoint Dewpoint Depression Visibility Wind Speed Wind Dir Waves Ship Positions

Larry Drummond

Owner: INGRAM BARGE COMPANY, NASHVILLE, TN. More information available from US FCC via Universal Licensing System and Coast Guard Vessel Documentation Center.

Last reported at 2015-Jul-28 13:29 UTC. Time now 2015-Jul-31 01:05 UTC.
Position N 38°38' W 083°40'.

Length 70 m; draft 9 m.

Type: Towing. MMSI: 367522210.

Date/timePositionNaut miles runAvg speedWind from/ knotsBaromVisibWave heightAir tempDewpointWater temp
2015-Jul-28 13:29N 38°38' W 083°40'2 0.9
2015-Jul-28 11:20N 38°38' W 083°42'10 1.7
2015-Jul-28 05:33N 38°45' W 083°51'4 3.7
2015-Jul-28 04:33N 38°46' W 083°56'5 3.6
2015-Jul-28 03:08N 38°46' W 084°02'2 3.7
2015-Jul-28 02:33N 38°46' W 084°05'4 3.7
2015-Jul-28 01:33N 38°48' W 084°09'2 2.0
2015-Jul-28 00:32N 38°48' W 084°12'2 2.3
2015-Jul-27 23:33N 38°50' W 084°14'4 3.5
2015-Jul-27 22:33N 38°53' W 084°14'3 3.1
2015-Jul-27 21:33N 38°56' W 084°16'3 3.1
2015-Jul-27 20:33N 38°59' W 084°18'3 3.1
2015-Jul-27 19:33N 39°01' W 084°20'3 3.1
2015-Jul-27 18:32N 39°03' W 084°23'1 1.1
2015-Jul-27 17:33N 39°03' W 084°25'2 2.1
2015-Jul-27 16:32N 39°05' W 084°26'3 2.6
2015-Jul-27 15:33N 39°07' W 084°27'3 2.6
2015-Jul-27 14:33N 39°06' W 084°30'3 3.1
2015-Jul-27 13:32N 39°05' W 084°34'1 0.9
2015-Jul-27 12:32N 39°05' W 084°35'0 0.1
2015-Jul-27 11:32N 39°05' W 084°35'0 0.0
2015-Jul-27 10:33N 39°05' W 084°35'0 0.0
2015-Jul-27 09:32N 39°05' W 084°35'1 0.8
2015-Jul-27 08:32N 39°04' W 084°36'3 3.1
2015-Jul-27 07:34N 39°06' W 084°40'3 3.0
2015-Jul-27 06:32N 39°08' W 084°43'3 2.6
2015-Jul-27 05:32N 39°08' W 084°46'2 2.0
2015-Jul-27 04:33N 39°07' W 084°48'0 0.0
2015-Jul-27 03:33N 39°07' W 084°48'5 2.5
2015-Jul-27 01:26N 39°04' W 084°53'7 2.6
2015-Jul-26 22:32N 38°57' W 084°51'13 1.4
2015-Jul-26 13:32N 38°46' W 085°00'  

Dump ship's entire track history